sensor_id;sensor_type;location;lat;lon;timestamp;temperature;humidity
30206;DHT22;17010;51.306;3.150;2023-02-22T00:00:59;5.10;99.90
30206;DHT22;17010;51.306;3.150;2023-02-22T00:03:32;5.00;99.90
30206;DHT22;17010;51.306;3.150;2023-02-22T00:06:04;5.00;99.90
30206;DHT22;17010;51.306;3.150;2023-02-22T00:08:35;5.00;99.90
30206;DHT22;17010;51.306;3.150;2023-02-22T00:11:04;4.90;99.90
30206;DHT22;17010;51.306;3.150;2023-02-22T00:13:34;4.90;99.90
30206;DHT22;17010;51.306;3.150;2023-02-22T00:16:01;4.90;99.90
30206;DHT22;17010;51.306;3.150;2023-02-22T00:18:27;4.90;99.90
30206;DHT22;17010;51.306;3.150;2023-02-22T00:20:55;4.90;99.90
30206;DHT22;17010;51.306;3.150;2023-02-22T00:23:25;4.90;99.90
30206;DHT22;17010;51.306;3.150;2023-02-22T00:25:54;5.00;99.90
30206;DHT22;17010;51.306;3.150;2023-02-22T00:28:20;5.00;99.90
30206;DHT22;17010;51.306;3.150;2023-02-22T00:30:49;5.00;99.90
30206;DHT22;17010;51.306;3.150;2023-02-22T00:33:15;5.00;99.90
30206;DHT22;17010;51.306;3.150;2023-02-22T00:35:43;5.00;99.90
30206;DHT22;17010;51.306;3.150;2023-02-22T00:38:11;5.00;99.90
30206;DHT22;17010;51.306;3.150;2023-02-22T00:40:38;5.00;99.90
30206;DHT22;17010;51.306;3.150;2023-02-22T00:43:05;5.10;99.90
30206;DHT22;17010;51.306;3.150;2023-02-22T00:45:33;5.10;99.90
30206;DHT22;17010;51.306;3.150;2023-02-22T00:48:00;5.10;99.90
30206;DHT22;17010;51.306;3.150;2023-02-22T00:50:28;5.10;99.90
30206;DHT22;17010;51.306;3.150;2023-02-22T00:52:55;5.10;99.90
30206;DHT22;17010;51.306;3.150;2023-02-22T00:55:28;5.10;99.90
30206;DHT22;17010;51.306;3.150;2023-02-22T00:57:55;5.10;99.90
30206;DHT22;17010;51.306;3.150;2023-02-22T01:00:27;5.10;99.90
30206;DHT22;17010;51.306;3.150;2023-02-22T01:02:54;5.10;99.90
30206;DHT22;17010;51.306;3.150;2023-02-22T01:05:26;5.00;99.90
30206;DHT22;17010;51.306;3.150;2023-02-22T01:07:54;5.00;99.90
30206;DHT22;17010;51.306;3.150;2023-02-22T01:10:22;5.00;99.90
30206;DHT22;17010;51.306;3.150;2023-02-22T01:12:50;4.90;99.90
30206;DHT22;17010;51.306;3.150;2023-02-22T01:15:19;4.90;99.90
30206;DHT22;17010;51.306;3.150;2023-02-22T01:17:50;4.80;99.90
30206;DHT22;17010;51.306;3.150;2023-02-22T01:20:17;4.80;99.90
30206;DHT22;17010;51.306;3.150;2023-02-22T01:22:46;4.70;99.90
30206;DHT22;17010;51.306;3.150;2023-02-22T01:25:17;4.70;99.90
30206;DHT22;17010;51.306;3.150;2023-02-22T01:27:43;4.70;99.90
30206;DHT22;17010;51.306;3.150;2023-02-22T01:30:12;4.70;99.90
30206;DHT22;17010;51.306;3.150;2023-02-22T01:32:40;4.70;99.90
30206;DHT22;17010;51.306;3.150;2023-02-22T01:35:13;4.70;99.90
30206;DHT22;17010;51.306;3.150;2023-02-22T01:37:40;4.60;99.90
30206;DHT22;17010;51.306;3.150;2023-02-22T01:40:09;4.60;99.90
30206;DHT22;17010;51.306;3.150;2023-02-22T01:42:36;4.60;99.90
30206;DHT22;17010;51.306;3.150;2023-02-22T01:48:05;4.60;99.90
30206;DHT22;17010;51.306;3.150;2023-02-22T01:50:36;4.50;99.90
30206;DHT22;17010;51.306;3.150;2023-02-22T01:53:03;4.50;99.90
30206;DHT22;17010;51.306;3.150;2023-02-22T01:55:31;4.50;99.90
30206;DHT22;17010;51.306;3.150;2023-02-22T01:57:58;4.50;99.90
30206;DHT22;17010;51.306;3.150;2023-02-22T02:00:25;4.60;99.90
30206;DHT22;17010;51.306;3.150;2023-02-22T02:02:56;4.60;99.90
30206;DHT22;17010;51.306;3.150;2023-02-22T02:05:27;4.50;99.90
30206;DHT22;17010;51.306;3.150;2023-02-22T02:07:57;4.60;99.90
30206;DHT22;17010;51.306;3.150;2023-02-22T02:10:24;4.60;99.90
30206;DHT22;17010;51.306;3.150;2023-02-22T02:12:50;4.60;99.90
30206;DHT22;17010;51.306;3.150;2023-02-22T02:17:46;4.50;99.90
30206;DHT22;17010;51.306;3.150;2023-02-22T02:23:23;4.50;99.90
30206;DHT22;17010;51.306;3.150;2023-02-22T02:26:10;4.50;99.90
30206;DHT22;17010;51.306;3.150;2023-02-22T02:34:45;4.70;99.90
30206;DHT22;17010;51.306;3.150;2023-02-22T02:37:26;4.70;99.90
30206;DHT22;17010;51.306;3.150;2023-02-22T02:40:07;4.70;99.90
30206;DHT22;17010;51.306;3.150;2023-02-22T02:42:42;4.70;99.90
30206;DHT22;17010;51.306;3.150;2023-02-22T02:45:19;4.80;99.90
30206;DHT22;17010;51.306;3.150;2023-02-22T02:47:50;4.80;99.90
30206;DHT22;17010;51.306;3.150;2023-02-22T02:53:36;4.70;99.90
30206;DHT22;17010;51.306;3.150;2023-02-22T02:56:04;4.70;99.90
30206;DHT22;17010;51.306;3.150;2023-02-22T02:58:31;4.70;99.90
30206;DHT22;17010;51.306;3.150;2023-02-22T03:01:00;4.70;99.90
30206;DHT22;17010;51.306;3.150;2023-02-22T03:09:30;4.80;99.90
30206;DHT22;17010;51.306;3.150;2023-02-22T03:15:27;4.70;99.90
30206;DHT22;17010;51.306;3.150;2023-02-22T03:18:08;4.70;99.90
30206;DHT22;17010;51.306;3.150;2023-02-22T03:26:02;4.80;99.90
30206;DHT22;17010;51.306;3.150;2023-02-22T03:28:29;4.90;99.90
30206;DHT22;17010;51.306;3.150;2023-02-22T03:31:06;4.90;99.90
30206;DHT22;17010;51.306;3.150;2023-02-22T03:33:46;4.90;99.90
30206;DHT22;17010;51.306;3.150;2023-02-22T03:36:34;4.90;99.90
30206;DHT22;17010;51.306;3.150;2023-02-22T03:39:04;4.90;99.90
30206;DHT22;17010;51.306;3.150;2023-02-22T03:41:31;4.90;99.90
30206;DHT22;17010;51.306;3.150;2023-02-22T03:44:05;4.90;99.90
30206;DHT22;17010;51.306;3.150;2023-02-22T03:46:31;4.90;99.90
30206;DHT22;17010;51.306;3.150;2023-02-22T03:51:46;4.90;99.90
30206;DHT22;17010;51.306;3.150;2023-02-22T03:54:12;4.80;99.90
30206;DHT22;17010;51.306;3.150;2023-02-22T03:57:26;4.80;99.90
30206;DHT22;17010;51.306;3.150;2023-02-22T03:59:32;4.80;99.90
30206;DHT22;17010;51.306;3.150;2023-02-22T04:01:59;4.80;99.90
30206;DHT22;17010;51.306;3.150;2023-02-22T04:04:25;4.80;99.90
30206;DHT22;17010;51.306;3.150;2023-02-22T04:06:51;4.80;99.90
30206;DHT22;17010;51.306;3.150;2023-02-22T04:09:18;4.80;99.90
30206;DHT22;17010;51.306;3.150;2023-02-22T04:11:44;4.80;99.90
30206;DHT22;17010;51.306;3.150;2023-02-22T04:14:11;4.80;99.90
30206;DHT22;17010;51.306;3.150;2023-02-22T04:16:38;4.80;99.90
30206;DHT22;17010;51.306;3.150;2023-02-22T04:19:05;4.80;99.90
30206;DHT22;17010;51.306;3.150;2023-02-22T04:21:31;4.90;99.90
30206;DHT22;17010;51.306;3.150;2023-02-22T04:23:58;4.90;99.90
30206;DHT22;17010;51.306;3.150;2023-02-22T04:26:24;4.90;99.90
30206;DHT22;17010;51.306;3.150;2023-02-22T04:28:50;5.00;99.90
30206;DHT22;17010;51.306;3.150;2023-02-22T04:31:16;5.00;99.90
30206;DHT22;17010;51.306;3.150;2023-02-22T04:33:42;5.00;99.90
30206;DHT22;17010;51.306;3.150;2023-02-22T04:36:09;5.00;99.90
30206;DHT22;17010;51.306;3.150;2023-02-22T04:38:36;5.10;99.90
30206;DHT22;17010;51.306;3.150;2023-02-22T04:41:02;5.00;99.90
30206;DHT22;17010;51.306;3.150;2023-02-22T04:43:28;5.10;99.90
30206;DHT22;17010;51.306;3.150;2023-02-22T04:45:54;5.00;99.90
30206;DHT22;17010;51.306;3.150;2023-02-22T04:48:20;5.00;99.90
30206;DHT22;17010;51.306;3.150;2023-02-22T04:50:46;4.90;99.90
30206;DHT22;17010;51.306;3.150;2023-02-22T04:53:12;4.90;99.90
30206;DHT22;17010;51.306;3.150;2023-02-22T04:55:38;4.90;99.90
30206;DHT22;17010;51.306;3.150;2023-02-22T04:58:05;4.90;99.90
30206;DHT22;17010;51.306;3.150;2023-02-22T05:00:31;4.90;99.90
30206;DHT22;17010;51.306;3.150;2023-02-22T05:02:57;4.90;99.90
30206;DHT22;17010;51.306;3.150;2023-02-22T05:05:24;4.90;99.90
30206;DHT22;17010;51.306;3.150;2023-02-22T05:07:50;4.90;99.90
30206;DHT22;17010;51.306;3.150;2023-02-22T05:10:16;4.90;99.90
30206;DHT22;17010;51.306;3.150;2023-02-22T05:12:42;4.90;99.90
30206;DHT22;17010;51.306;3.150;2023-02-22T05:15:09;4.90;99.90
30206;DHT22;17010;51.306;3.150;2023-02-22T05:17:35;4.90;99.90
30206;DHT22;17010;51.306;3.150;2023-02-22T05:20:03;4.90;99.90
30206;DHT22;17010;51.306;3.150;2023-02-22T05:22:29;4.90;99.90
30206;DHT22;17010;51.306;3.150;2023-02-22T05:24:56;4.90;99.90
30206;DHT22;17010;51.306;3.150;2023-02-22T05:27:22;5.00;99.90
30206;DHT22;17010;51.306;3.150;2023-02-22T05:29:48;4.90;99.90
30206;DHT22;17010;51.306;3.150;2023-02-22T05:32:14;4.90;99.90
30206;DHT22;17010;51.306;3.150;2023-02-22T05:34:40;4.90;99.90
30206;DHT22;17010;51.306;3.150;2023-02-22T05:37:06;4.90;99.90
30206;DHT22;17010;51.306;3.150;2023-02-22T05:39:33;4.80;99.90
30206;DHT22;17010;51.306;3.150;2023-02-22T05:41:59;4.80;99.90
30206;DHT22;17010;51.306;3.150;2023-02-22T05:44:25;4.80;99.90
30206;DHT22;17010;51.306;3.150;2023-02-22T05:46:51;4.80;99.90
30206;DHT22;17010;51.306;3.150;2023-02-22T05:49:17;4.80;99.90
30206;DHT22;17010;51.306;3.150;2023-02-22T05:51:43;4.80;99.90
30206;DHT22;17010;51.306;3.150;2023-02-22T05:54:10;4.80;99.90
30206;DHT22;17010;51.306;3.150;2023-02-22T05:56:36;4.80;99.90
30206;DHT22;17010;51.306;3.150;2023-02-22T05:59:02;4.80;99.90
30206;DHT22;17010;51.306;3.150;2023-02-22T06:01:28;4.90;99.90
30206;DHT22;17010;51.306;3.150;2023-02-22T06:03:54;4.90;99.90
30206;DHT22;17010;51.306;3.150;2023-02-22T06:06:20;4.90;99.90
30206;DHT22;17010;51.306;3.150;2023-02-22T06:08:46;4.80;99.90
30206;DHT22;17010;51.306;3.150;2023-02-22T06:11:13;4.80;99.90
30206;DHT22;17010;51.306;3.150;2023-02-22T06:13:39;4.80;99.90
30206;DHT22;17010;51.306;3.150;2023-02-22T06:16:06;4.80;99.90
30206;DHT22;17010;51.306;3.150;2023-02-22T06:18:33;4.80;99.90
30206;DHT22;17010;51.306;3.150;2023-02-22T06:20:59;4.70;99.90
30206;DHT22;17010;51.306;3.150;2023-02-22T06:23:25;4.70;99.90
30206;DHT22;17010;51.306;3.150;2023-02-22T06:25:52;4.60;99.90
30206;DHT22;17010;51.306;3.150;2023-02-22T06:28:18;4.60;99.90
30206;DHT22;17010;51.306;3.150;2023-02-22T06:30:44;4.60;99.90
30206;DHT22;17010;51.306;3.150;2023-02-22T06:33:11;4.70;99.90
30206;DHT22;17010;51.306;3.150;2023-02-22T06:35:37;4.70;99.90
30206;DHT22;17010;51.306;3.150;2023-02-22T06:38:03;4.80;99.90
30206;DHT22;17010;51.306;3.150;2023-02-22T06:40:29;4.90;99.90
30206;DHT22;17010;51.306;3.150;2023-02-22T06:42:57;4.90;99.90
30206;DHT22;17010;51.306;3.150;2023-02-22T06:45:23;4.90;99.90
30206;DHT22;17010;51.306;3.150;2023-02-22T06:47:49;4.90;99.90
30206;DHT22;17010;51.306;3.150;2023-02-22T06:52:49;4.90;99.90
30206;DHT22;17010;51.306;3.150;2023-02-22T06:55:27;4.90;99.90
30206;DHT22;17010;51.306;3.150;2023-02-22T06:57:54;4.90;99.90
30206;DHT22;17010;51.306;3.150;2023-02-22T07:00:22;5.00;99.90
30206;DHT22;17010;51.306;3.150;2023-02-22T07:02:50;5.00;99.90
30206;DHT22;17010;51.306;3.150;2023-02-22T07:05:18;5.00;99.90
30206;DHT22;17010;51.306;3.150;2023-02-22T07:07:46;5.10;99.90
30206;DHT22;17010;51.306;3.150;2023-02-22T07:10:24;5.20;99.90
30206;DHT22;17010;51.306;3.150;2023-02-22T07:12:51;5.30;99.90
30206;DHT22;17010;51.306;3.150;2023-02-22T07:15:18;5.40;99.90
30206;DHT22;17010;51.306;3.150;2023-02-22T07:17:46;5.40;99.90
30206;DHT22;17010;51.306;3.150;2023-02-22T07:20:13;5.40;99.90
30206;DHT22;17010;51.306;3.150;2023-02-22T07:22:39;5.40;99.90
30206;DHT22;17010;51.306;3.150;2023-02-22T07:25:06;5.40;99.90
30206;DHT22;17010;51.306;3.150;2023-02-22T07:27:39;5.50;99.90
30206;DHT22;17010;51.306;3.150;2023-02-22T07:30:07;5.60;99.90
30206;DHT22;17010;51.306;3.150;2023-02-22T07:32:35;5.60;99.90
30206;DHT22;17010;51.306;3.150;2023-02-22T07:35:02;5.60;99.90
30206;DHT22;17010;51.306;3.150;2023-02-22T07:37:28;5.70;99.90
30206;DHT22;17010;51.306;3.150;2023-02-22T07:39:55;5.70;99.90
30206;DHT22;17010;51.306;3.150;2023-02-22T07:42:21;5.80;99.90
30206;DHT22;17010;51.306;3.150;2023-02-22T07:44:47;5.90;99.90
30206;DHT22;17010;51.306;3.150;2023-02-22T07:47:13;5.90;99.90
30206;DHT22;17010;51.306;3.150;2023-02-22T07:49:39;6.00;99.90
30206;DHT22;17010;51.306;3.150;2023-02-22T07:52:05;6.00;99.90
30206;DHT22;17010;51.306;3.150;2023-02-22T07:54:32;6.10;99.90
30206;DHT22;17010;51.306;3.150;2023-02-22T07:56:58;6.20;99.90
30206;DHT22;17010;51.306;3.150;2023-02-22T07:59:24;6.20;99.90
30206;DHT22;17010;51.306;3.150;2023-02-22T08:01:50;6.30;99.90
30206;DHT22;17010;51.306;3.150;2023-02-22T08:04:17;6.40;99.90
30206;DHT22;17010;51.306;3.150;2023-02-22T08:06:43;6.40;99.90
30206;DHT22;17010;51.306;3.150;2023-02-22T08:09:11;6.50;99.90
30206;DHT22;17010;51.306;3.150;2023-02-22T08:11:37;6.60;99.90
30206;DHT22;17010;51.306;3.150;2023-02-22T08:14:03;6.70;99.90
30206;DHT22;17010;51.306;3.150;2023-02-22T08:16:29;6.70;99.90
30206;DHT22;17010;51.306;3.150;2023-02-22T08:18:56;6.80;99.90
30206;DHT22;17010;51.306;3.150;2023-02-22T08:21:22;6.80;99.90
30206;DHT22;17010;51.306;3.150;2023-02-22T08:23:51;6.90;99.90
30206;DHT22;17010;51.306;3.150;2023-02-22T08:26:19;7.00;99.90
30206;DHT22;17010;51.306;3.150;2023-02-22T08:28:45;7.00;99.90
30206;DHT22;17010;51.306;3.150;2023-02-22T08:31:11;7.10;99.90
30206;DHT22;17010;51.306;3.150;2023-02-22T08:33:37;7.10;99.90
30206;DHT22;17010;51.306;3.150;2023-02-22T08:36:04;7.20;99.90
30206;DHT22;17010;51.306;3.150;2023-02-22T08:38:31;7.20;99.90
30206;DHT22;17010;51.306;3.150;2023-02-22T08:40:58;7.30;99.90
30206;DHT22;17010;51.306;3.150;2023-02-22T08:43:25;7.40;99.90
30206;DHT22;17010;51.306;3.150;2023-02-22T08:45:51;7.50;99.90
30206;DHT22;17010;51.306;3.150;2023-02-22T08:48:17;7.60;99.90
30206;DHT22;17010;51.306;3.150;2023-02-22T08:50:44;7.70;99.90
30206;DHT22;17010;51.306;3.150;2023-02-22T08:53:12;7.80;99.90
30206;DHT22;17010;51.306;3.150;2023-02-22T08:55:39;7.90;99.90
30206;DHT22;17010;51.306;3.150;2023-02-22T08:58:07;8.00;99.90
30206;DHT22;17010;51.306;3.150;2023-02-22T09:00:34;8.10;99.90
30206;DHT22;17010;51.306;3.150;2023-02-22T09:03:01;8.20;99.90
30206;DHT22;17010;51.306;3.150;2023-02-22T09:05:28;8.20;99.90
30206;DHT22;17010;51.306;3.150;2023-02-22T09:07:55;8.20;99.90
30206;DHT22;17010;51.306;3.150;2023-02-22T09:10:24;8.30;99.90
30206;DHT22;17010;51.306;3.150;2023-02-22T09:12:55;8.30;99.90
30206;DHT22;17010;51.306;3.150;2023-02-22T09:15:22;8.40;99.90
30206;DHT22;17010;51.306;3.150;2023-02-22T09:17:49;8.40;99.90
30206;DHT22;17010;51.306;3.150;2023-02-22T09:20:17;8.50;99.90
30206;DHT22;17010;51.306;3.150;2023-02-22T09:22:45;8.60;99.90
30206;DHT22;17010;51.306;3.150;2023-02-22T09:25:11;8.60;99.90
30206;DHT22;17010;51.306;3.150;2023-02-22T09:27:37;8.70;99.90
30206;DHT22;17010;51.306;3.150;2023-02-22T09:30:05;8.70;99.90
30206;DHT22;17010;51.306;3.150;2023-02-22T09:32:36;8.80;99.90
30206;DHT22;17010;51.306;3.150;2023-02-22T09:35:02;8.90;99.90
30206;DHT22;17010;51.306;3.150;2023-02-22T09:37:28;8.90;99.90
30206;DHT22;17010;51.306;3.150;2023-02-22T09:39:54;8.90;99.90
30206;DHT22;17010;51.306;3.150;2023-02-22T09:42:30;9.00;99.90
30206;DHT22;17010;51.306;3.150;2023-02-22T09:45:13;9.00;99.90
30206;DHT22;17010;51.306;3.150;2023-02-22T09:47:47;9.10;99.90
30206;DHT22;17010;51.306;3.150;2023-02-22T09:50:45;9.20;99.90
30206;DHT22;17010;51.306;3.150;2023-02-22T09:55:40;9.30;99.90
30206;DHT22;17010;51.306;3.150;2023-02-22T09:58:26;9.40;99.90
30206;DHT22;17010;51.306;3.150;2023-02-22T10:01:03;9.50;99.90
30206;DHT22;17010;51.306;3.150;2023-02-22T10:03:49;9.60;99.90
30206;DHT22;17010;51.306;3.150;2023-02-22T10:06:21;9.70;99.90
30206;DHT22;17010;51.306;3.150;2023-02-22T10:08:49;9.70;99.90
30206;DHT22;17010;51.306;3.150;2023-02-22T10:25:04;10.50;99.90
30206;DHT22;17010;51.306;3.150;2023-02-22T10:27:36;10.60;99.90
30206;DHT22;17010;51.306;3.150;2023-02-22T10:30:27;10.70;99.90
30206;DHT22;17010;51.306;3.150;2023-02-22T10:33:06;10.80;99.90
30206;DHT22;17010;51.306;3.150;2023-02-22T10:35:35;10.90;99.90
30206;DHT22;17010;51.306;3.150;2023-02-22T10:38:16;10.90;99.90
30206;DHT22;17010;51.306;3.150;2023-02-22T10:40:55;11.00;99.90
30206;DHT22;17010;51.306;3.150;2023-02-22T10:43:22;11.00;99.90
30206;DHT22;17010;51.306;3.150;2023-02-22T10:45:54;11.00;99.90
30206;DHT22;17010;51.306;3.150;2023-02-22T10:48:22;10.90;99.90
30206;DHT22;17010;51.306;3.150;2023-02-22T10:50:49;10.90;99.90
30206;DHT22;17010;51.306;3.150;2023-02-22T10:53:18;11.00;99.90
30206;DHT22;17010;51.306;3.150;2023-02-22T10:56:16;10.90;99.90
30206;DHT22;17010;51.306;3.150;2023-02-22T10:58:51;10.90;99.90
30206;DHT22;17010;51.306;3.150;2023-02-22T11:04:11;10.90;99.90
30206;DHT22;17010;51.306;3.150;2023-02-22T11:06:42;10.90;99.90
30206;DHT22;17010;51.306;3.150;2023-02-22T11:09:10;10.80;99.90
30206;DHT22;17010;51.306;3.150;2023-02-22T11:11:41;10.80;99.90
30206;DHT22;17010;51.306;3.150;2023-02-22T11:14:09;10.80;99.90
30206;DHT22;17010;51.306;3.150;2023-02-22T11:16:46;10.80;99.90
30206;DHT22;17010;51.306;3.150;2023-02-22T11:19:23;10.70;99.90
30206;DHT22;17010;51.306;3.150;2023-02-22T11:21:52;10.80;99.90
30206;DHT22;17010;51.306;3.150;2023-02-22T11:24:19;10.70;99.90
30206;DHT22;17010;51.306;3.150;2023-02-22T11:26:54;10.60;99.90
30206;DHT22;17010;51.306;3.150;2023-02-22T11:29:32;10.50;99.90
30206;DHT22;17010;51.306;3.150;2023-02-22T11:32:16;10.60;99.90
30206;DHT22;17010;51.306;3.150;2023-02-22T11:34:46;10.60;99.90
30206;DHT22;17010;51.306;3.150;2023-02-22T11:37:30;10.60;99.90
30206;DHT22;17010;51.306;3.150;2023-02-22T11:42:36;10.50;99.90
30206;DHT22;17010;51.306;3.150;2023-02-22T11:45:16;10.50;99.90
30206;DHT22;17010;51.306;3.150;2023-02-22T11:47:56;10.40;99.90
30206;DHT22;17010;51.306;3.150;2023-02-22T11:50:52;10.40;99.90
30206;DHT22;17010;51.306;3.150;2023-02-22T11:55:54;10.40;99.90
30206;DHT22;17010;51.306;3.150;2023-02-22T11:58:29;10.30;99.90
30206;DHT22;17010;51.306;3.150;2023-02-22T12:06:20;10.30;99.90
30206;DHT22;17010;51.306;3.150;2023-02-22T12:17:06;10.10;99.90
30206;DHT22;17010;51.306;3.150;2023-02-22T12:19:55;10.00;99.90
30206;DHT22;17010;51.306;3.150;2023-02-22T12:22:29;10.10;99.90
30206;DHT22;17010;51.306;3.150;2023-02-22T12:27:44;10.00;99.90
30206;DHT22;17010;51.306;3.150;2023-02-22T12:32:59;10.10;99.90
30206;DHT22;17010;51.306;3.150;2023-02-22T12:35:33;10.10;99.90
30206;DHT22;17010;51.306;3.150;2023-02-22T12:38:28;10.10;99.90
30206;DHT22;17010;51.306;3.150;2023-02-22T12:41:26;10.20;99.90
30206;DHT22;17010;51.306;3.150;2023-02-22T12:46:36;10.10;99.90
30206;DHT22;17010;51.306;3.150;2023-02-22T12:49:37;10.10;99.90
30206;DHT22;17010;51.306;3.150;2023-02-22T12:52:38;10.20;99.90
30206;DHT22;17010;51.306;3.150;2023-02-22T13:00:49;10.10;99.90
30206;DHT22;17010;51.306;3.150;2023-02-22T13:15:17;9.90;99.90
30206;DHT22;17010;51.306;3.150;2023-02-22T13:20:40;9.70;99.90
30206;DHT22;17010;51.306;3.150;2023-02-22T13:23:31;9.60;99.90
30206;DHT22;17010;51.306;3.150;2023-02-22T13:26:04;9.60;99.90
30206;DHT22;17010;51.306;3.150;2023-02-22T13:28:43;9.50;99.90
30206;DHT22;17010;51.306;3.150;2023-02-22T13:36:36;9.40;99.90
30206;DHT22;17010;51.306;3.150;2023-02-22T13:51:16;9.30;99.90
30206;DHT22;17010;51.306;3.150;2023-02-22T13:53:56;9.30;99.90
30206;DHT22;17010;51.306;3.150;2023-02-22T13:56:23;9.40;99.90
30206;DHT22;17010;51.306;3.150;2023-02-22T13:58:56;9.50;99.90
30206;DHT22;17010;51.306;3.150;2023-02-22T14:01:46;9.60;99.90
30206;DHT22;17010;51.306;3.150;2023-02-22T14:07:44;9.90;99.90
30206;DHT22;17010;51.306;3.150;2023-02-22T14:17:43;10.30;99.90
30206;DHT22;17010;51.306;3.150;2023-02-22T14:22:41;10.40;99.90
30206;DHT22;17010;51.306;3.150;2023-02-22T14:25:43;10.40;99.90
30206;DHT22;17010;51.306;3.150;2023-02-22T14:31:15;10.30;99.90
30206;DHT22;17010;51.306;3.150;2023-02-22T14:36:32;10.30;99.90
30206;DHT22;17010;51.306;3.150;2023-02-22T14:45:15;10.30;99.90
30206;DHT22;17010;51.306;3.150;2023-02-22T14:47:45;10.30;99.90
30206;DHT22;17010;51.306;3.150;2023-02-22T14:50:36;10.30;99.90
30206;DHT22;17010;51.306;3.150;2023-02-22T14:53:20;10.30;99.90
30206;DHT22;17010;51.306;3.150;2023-02-22T14:55:55;10.40;99.90
30206;DHT22;17010;51.306;3.150;2023-02-22T14:58:45;10.40;99.90
30206;DHT22;17010;51.306;3.150;2023-02-22T15:03:44;10.50;99.90
30206;DHT22;17010;51.306;3.150;2023-02-22T15:06:31;10.50;99.90
30206;DHT22;17010;51.306;3.150;2023-02-22T15:09:27;10.50;99.90
30206;DHT22;17010;51.306;3.150;2023-02-22T15:14:34;10.60;99.90
30206;DHT22;17010;51.306;3.150;2023-02-22T15:17:11;10.60;99.90
30206;DHT22;17010;51.306;3.150;2023-02-22T15:19:39;10.60;99.90
30206;DHT22;17010;51.306;3.150;2023-02-22T15:22:12;10.50;99.90
30206;DHT22;17010;51.306;3.150;2023-02-22T15:24:55;10.50;99.90
30206;DHT22;17010;51.306;3.150;2023-02-22T15:27:23;10.40;99.90
30206;DHT22;17010;51.306;3.150;2023-02-22T15:29:55;10.40;99.90
30206;DHT22;17010;51.306;3.150;2023-02-22T15:34:54;10.30;99.90
30206;DHT22;17010;51.306;3.150;2023-02-22T15:37:30;10.20;99.90
30206;DHT22;17010;51.306;3.150;2023-02-22T15:40:08;10.30;99.90
30206;DHT22;17010;51.306;3.150;2023-02-22T15:42:50;10.20;99.90
30206;DHT22;17010;51.306;3.150;2023-02-22T15:45:23;10.20;99.90
30206;DHT22;17010;51.306;3.150;2023-02-22T15:47:51;10.20;99.90
30206;DHT22;17010;51.306;3.150;2023-02-22T15:50:30;10.20;99.90
30206;DHT22;17010;51.306;3.150;2023-02-22T15:53:22;10.10;99.90
30206;DHT22;17010;51.306;3.150;2023-02-22T15:55:59;10.10;99.90
30206;DHT22;17010;51.306;3.150;2023-02-22T15:58:28;10.00;99.90
30206;DHT22;17010;51.306;3.150;2023-02-22T16:01:03;10.00;99.90
30206;DHT22;17010;51.306;3.150;2023-02-22T16:03:44;10.00;99.90
30206;DHT22;17010;51.306;3.150;2023-02-22T16:06:49;10.00;99.90
30206;DHT22;17010;51.306;3.150;2023-02-22T16:09:17;10.00;99.90
30206;DHT22;17010;51.306;3.150;2023-02-22T16:11:48;10.10;99.90
30206;DHT22;17010;51.306;3.150;2023-02-22T16:16:49;10.00;99.90
30206;DHT22;17010;51.306;3.150;2023-02-22T16:19:37;10.00;99.90
30206;DHT22;17010;51.306;3.150;2023-02-22T16:22:05;9.90;99.90
30206;DHT22;17010;51.306;3.150;2023-02-22T16:24:38;9.90;99.90
30206;DHT22;17010;51.306;3.150;2023-02-22T16:29:58;9.90;99.90
30206;DHT22;17010;51.306;3.150;2023-02-22T16:32:25;9.80;99.90
30206;DHT22;17010;51.306;3.150;2023-02-22T16:34:51;9.80;99.90
30206;DHT22;17010;51.306;3.150;2023-02-22T16:37:21;9.60;99.90
30206;DHT22;17010;51.306;3.150;2023-02-22T16:39:48;9.60;99.90
30206;DHT22;17010;51.306;3.150;2023-02-22T16:42:18;9.60;99.90
30206;DHT22;17010;51.306;3.150;2023-02-22T16:44:50;9.50;99.90
30206;DHT22;17010;51.306;3.150;2023-02-22T16:47:16;9.60;99.90
30206;DHT22;17010;51.306;3.150;2023-02-22T16:49:44;9.60;99.90
30206;DHT22;17010;51.306;3.150;2023-02-22T16:52:10;9.60;99.90
30206;DHT22;17010;51.306;3.150;2023-02-22T16:54:42;9.50;99.90
30206;DHT22;17010;51.306;3.150;2023-02-22T16:57:14;9.50;99.90
30206;DHT22;17010;51.306;3.150;2023-02-22T16:59:41;9.50;99.90
30206;DHT22;17010;51.306;3.150;2023-02-22T17:02:12;9.50;99.90
30206;DHT22;17010;51.306;3.150;2023-02-22T17:04:38;9.60;99.90
30206;DHT22;17010;51.306;3.150;2023-02-22T17:07:05;9.50;99.90
30206;DHT22;17010;51.306;3.150;2023-02-22T17:09:34;9.50;99.90
30206;DHT22;17010;51.306;3.150;2023-02-22T17:12:00;9.50;99.90
30206;DHT22;17010;51.306;3.150;2023-02-22T17:14:30;9.50;99.90
30206;DHT22;17010;51.306;3.150;2023-02-22T17:16:58;9.50;99.90
30206;DHT22;17010;51.306;3.150;2023-02-22T17:19:25;9.50;99.90
30206;DHT22;17010;51.306;3.150;2023-02-22T17:21:51;9.50;99.90
30206;DHT22;17010;51.306;3.150;2023-02-22T17:24:20;9.50;99.90
30206;DHT22;17010;51.306;3.150;2023-02-22T17:26:48;9.50;99.90
30206;DHT22;17010;51.306;3.150;2023-02-22T17:29:14;9.50;99.90
30206;DHT22;17010;51.306;3.150;2023-02-22T17:31:42;9.40;99.90
30206;DHT22;17010;51.306;3.150;2023-02-22T17:34:08;9.40;99.90
30206;DHT22;17010;51.306;3.150;2023-02-22T17:36:35;9.40;99.90
30206;DHT22;17010;51.306;3.150;2023-02-22T17:39:02;9.40;99.90
30206;DHT22;17010;51.306;3.150;2023-02-22T17:41:28;9.40;99.90
30206;DHT22;17010;51.306;3.150;2023-02-22T17:43:54;9.40;99.90
30206;DHT22;17010;51.306;3.150;2023-02-22T17:46:23;9.40;99.90
30206;DHT22;17010;51.306;3.150;2023-02-22T17:48:50;9.30;99.90
30206;DHT22;17010;51.306;3.150;2023-02-22T17:51:20;9.30;99.90
30206;DHT22;17010;51.306;3.150;2023-02-22T17:53:47;9.30;99.90
30206;DHT22;17010;51.306;3.150;2023-02-22T17:56:17;9.40;99.90
30206;DHT22;17010;51.306;3.150;2023-02-22T17:58:48;9.40;99.90
30206;DHT22;17010;51.306;3.150;2023-02-22T18:01:26;9.40;99.90
30206;DHT22;17010;51.306;3.150;2023-02-22T18:03:54;9.40;99.90
30206;DHT22;17010;51.306;3.150;2023-02-22T18:06:22;9.50;99.90
30206;DHT22;17010;51.306;3.150;2023-02-22T18:08:48;9.50;99.90
30206;DHT22;17010;51.306;3.150;2023-02-22T18:11:18;9.50;99.90
30206;DHT22;17010;51.306;3.150;2023-02-22T18:13:45;9.50;99.90
30206;DHT22;17010;51.306;3.150;2023-02-22T18:16:12;9.50;99.90
30206;DHT22;17010;51.306;3.150;2023-02-22T18:18:38;9.50;99.90
30206;DHT22;17010;51.306;3.150;2023-02-22T18:21:04;9.50;99.90
30206;DHT22;17010;51.306;3.150;2023-02-22T18:23:31;9.40;99.90
30206;DHT22;17010;51.306;3.150;2023-02-22T18:25:59;9.50;99.90
30206;DHT22;17010;51.306;3.150;2023-02-22T18:28:26;9.50;99.90
30206;DHT22;17010;51.306;3.150;2023-02-22T18:30:52;9.50;99.90
30206;DHT22;17010;51.306;3.150;2023-02-22T18:33:18;9.50;99.90
30206;DHT22;17010;51.306;3.150;2023-02-22T18:35:48;9.50;99.90
30206;DHT22;17010;51.306;3.150;2023-02-22T18:38:21;9.60;99.90
30206;DHT22;17010;51.306;3.150;2023-02-22T18:41:04;9.60;99.90
30206;DHT22;17010;51.306;3.150;2023-02-22T18:43:31;9.50;99.90